createdAt,value
2018-10-18T00:00:52.642Z,66.60
2018-10-18T00:03:21.195Z,66.70
2018-10-18T00:05:49.683Z,66.70
2018-10-18T00:08:18.245Z,66.60
2018-10-18T00:10:46.739Z,66.80
2018-10-18T00:13:15.629Z,67.40
2018-10-18T00:15:44.007Z,68.20
2018-10-18T00:18:12.515Z,67.80
2018-10-18T00:20:40.796Z,67.70
2018-10-18T00:23:09.158Z,67.40
2018-10-18T00:25:37.545Z,67.20
2018-10-18T00:28:06.169Z,66.90
2018-10-18T00:30:34.542Z,66.90
2018-10-18T00:33:02.938Z,66.90
2018-10-18T00:35:31.365Z,67.10
2018-10-18T00:37:59.942Z,67.10
2018-10-18T00:40:28.614Z,67.10
2018-10-18T00:42:57.090Z,67.20
2018-10-18T00:45:25.473Z,67.30
2018-10-18T00:47:54.014Z,67.40
2018-10-18T00:50:22.433Z,67.80
2018-10-18T00:52:50.783Z,68.00
2018-10-18T00:55:19.230Z,68.00
2018-10-18T00:57:47.626Z,68.00
2018-10-18T01:00:16.207Z,68.00
2018-10-18T01:02:44.485Z,68.00
2018-10-18T01:05:12.881Z,67.90
2018-10-18T01:07:41.455Z,67.90
2018-10-18T01:10:10.010Z,68.10
2018-10-18T01:12:38.462Z,68.40
2018-10-18T01:15:07.334Z,68.60
2018-10-18T01:17:35.792Z,68.40
2018-10-18T01:20:04.836Z,68.70
2018-10-18T01:22:33.166Z,69.00
2018-10-18T01:25:01.551Z,68.70
2018-10-18T01:27:30.010Z,68.50
2018-10-18T01:29:58.434Z,68.60
2018-10-18T01:32:26.904Z,68.50
2018-10-18T01:34:55.307Z,69.00
2018-10-18T01:37:23.662Z,69.00
2018-10-18T01:39:52.053Z,69.10
2018-10-18T01:42:20.521Z,68.80
2018-10-18T01:44:48.978Z,69.10
2018-10-18T01:47:17.369Z,69.50
2018-10-18T01:49:45.717Z,69.80
2018-10-18T01:52:14.093Z,70.20
2018-10-18T01:54:42.490Z,69.90
2018-10-18T01:57:10.892Z,70.40
2018-10-18T01:59:39.278Z,70.90
2018-10-18T02:02:07.806Z,71.10
2018-10-18T02:04:36.142Z,71.00
2018-10-18T02:07:04.544Z,70.70
2018-10-18T02:09:33.027Z,69.80
2018-10-18T02:12:01.478Z,69.40
2018-10-18T02:14:29.798Z,69.00
2018-10-18T02:16:58.154Z,69.00
2018-10-18T02:19:26.542Z,68.80
2018-10-18T02:21:54.897Z,68.90
2018-10-18T02:24:23.454Z,69.10
2018-10-18T02:26:51.994Z,69.70
2018-10-18T02:29:20.438Z,70.00
2018-10-18T02:31:48.792Z,70.30
2018-10-18T02:34:17.278Z,70.60
2018-10-18T02:36:45.741Z,70.70
2018-10-18T02:39:14.113Z,70.80
2018-10-18T02:41:42.539Z,71.00
2018-10-18T02:44:10.926Z,70.90
2018-10-18T02:46:39.298Z,71.00
2018-10-18T02:49:07.711Z,70.70
2018-10-18T02:51:36.195Z,70.90
2018-10-18T02:54:04.676Z,70.10
2018-10-18T02:56:33.119Z,69.90
2018-10-18T02:59:01.473Z,69.70
2018-10-18T03:01:29.823Z,69.90
2018-10-18T03:03:58.201Z,70.10
2018-10-18T03:06:26.595Z,69.90
2018-10-18T03:08:55.037Z,69.80
2018-10-18T03:11:23.443Z,69.90
2018-10-18T03:13:51.861Z,69.70
2018-10-18T03:16:20.231Z,69.80
2018-10-18T03:18:48.628Z,69.90
2018-10-18T03:21:16.986Z,70.60
2018-10-18T03:23:45.359Z,70.00
2018-10-18T03:26:13.911Z,70.00
2018-10-18T03:28:42.363Z,70.10
2018-10-18T03:31:10.717Z,70.20
2018-10-18T03:33:39.062Z,70.20
2018-10-18T03:36:07.594Z,70.30
2018-10-18T03:38:36.132Z,70.30
2018-10-18T03:41:04.691Z,70.10
2018-10-18T03:43:33.446Z,70.20
2018-10-18T03:46:01.802Z,71.30
2018-10-18T03:48:30.321Z,70.60
2018-10-18T03:50:58.738Z,71.00
2018-10-18T03:53:27.964Z,71.00
2018-10-18T03:55:56.346Z,70.90
2018-10-18T03:58:24.690Z,70.80
2018-10-18T04:00:53.239Z,70.90
2018-10-18T04:03:21.831Z,70.90
2018-10-18T04:05:50.417Z,70.90
2018-10-18T04:08:18.749Z,70.90
2018-10-18T04:10:47.325Z,70.90
2018-10-18T04:13:15.783Z,71.00
2018-10-18T04:15:44.105Z,71.00
2018-10-18T04:18:12.545Z,71.20
2018-10-18T04:20:41.050Z,71.20
2018-10-18T04:23:09.410Z,71.40
2018-10-18T04:25:37.892Z,71.20
2018-10-18T04:28:06.198Z,71.30
2018-10-18T04:30:34.561Z,71.10
2018-10-18T04:33:02.934Z,71.00
2018-10-18T04:35:31.379Z,70.90
2018-10-18T04:37:59.768Z,70.80
2018-10-18T04:40:28.261Z,70.80
2018-10-18T04:42:56.642Z,70.80
2018-10-18T04:45:25.010Z,70.80
2018-10-18T04:47:53.524Z,70.70
2018-10-18T04:50:21.869Z,70.70
2018-10-18T04:52:50.304Z,70.80
2018-10-18T04:55:18.728Z,70.70
2018-10-18T04:57:47.171Z,70.60
2018-10-18T05:00:15.662Z,70.60
2018-10-18T05:02:44.286Z,70.70
2018-10-18T05:05:23.866Z,70.70
2018-10-18T05:07:52.291Z,71.20
2018-10-18T05:10:20.787Z,70.70
2018-10-18T05:12:49.268Z,71.00
2018-10-18T05:15:17.788Z,71.10
2018-10-18T05:17:46.188Z,71.30
2018-10-18T05:20:14.683Z,72.00
2018-10-18T05:22:43.045Z,72.30
2018-10-18T05:25:11.507Z,72.00
2018-10-18T05:27:39.805Z,72.00
2018-10-18T05:30:08.684Z,71.90
2018-10-18T05:32:37.471Z,71.80
2018-10-18T05:35:06.203Z,71.60
2018-10-18T05:37:34.741Z,71.60
2018-10-18T05:40:03.353Z,71.60
2018-10-18T05:42:31.852Z,71.60
2018-10-18T05:45:00.459Z,71.80
2018-10-18T05:47:28.841Z,71.50
2018-10-18T05:49:57.302Z,71.20
2018-10-18T05:52:26.032Z,71.20
2018-10-18T05:54:54.447Z,71.20
2018-10-18T05:57:22.810Z,71.30
2018-10-18T05:59:51.191Z,71.70
2018-10-18T06:02:19.614Z,72.00
2018-10-18T06:04:48.090Z,72.90
2018-10-18T06:07:16.575Z,72.40
2018-10-18T06:09:44.894Z,72.40
2018-10-18T06:12:13.228Z,72.30
2018-10-18T06:14:41.597Z,72.30
2018-10-18T06:17:10.101Z,73.20
2018-10-18T06:19:38.796Z,72.40
2018-10-18T06:22:07.165Z,72.60
2018-10-18T06:24:35.793Z,72.60
2018-10-18T06:27:04.230Z,73.60
2018-10-18T06:29:32.654Z,73.80
2018-10-18T06:32:01.020Z,73.60
2018-10-18T06:34:29.571Z,73.60
2018-10-18T06:36:57.991Z,73.40
2018-10-18T06:39:26.521Z,73.40
2018-10-18T06:41:54.931Z,73.40
2018-10-18T06:44:23.360Z,73.40
2018-10-18T06:46:51.873Z,73.40
2018-10-18T06:49:20.226Z,73.50
2018-10-18T06:51:48.617Z,73.60
2018-10-18T06:54:17.087Z,73.80
2018-10-18T06:56:45.551Z,73.70
2018-10-18T06:59:14.127Z,73.80
2018-10-18T07:01:42.821Z,73.70
2018-10-18T07:04:11.291Z,73.50
2018-10-18T07:06:39.664Z,73.60
2018-10-18T07:09:09.922Z,73.30
2018-10-18T07:11:38.334Z,73.10
2018-10-18T07:14:06.865Z,73.10
2018-10-18T07:16:35.376Z,73.00
2018-10-18T07:19:04.199Z,72.70
2018-10-18T07:21:32.609Z,72.40
2018-10-18T07:24:01.072Z,72.90
2018-10-18T07:26:29.487Z,72.10
2018-10-18T07:28:57.839Z,72.10
2018-10-18T07:31:26.246Z,71.80
2018-10-18T07:33:54.693Z,71.70
2018-10-18T07:36:23.179Z,71.60
2018-10-18T07:38:51.573Z,71.20
2018-10-18T07:41:20.066Z,71.20
2018-10-18T07:43:48.302Z,71.10
2018-10-18T07:46:16.821Z,71.20
2018-10-18T07:48:45.227Z,71.60
2018-10-18T07:51:13.667Z,71.20
2018-10-18T07:53:42.174Z,71.00
2018-10-18T07:56:10.497Z,70.90
2018-10-18T07:58:38.951Z,70.90
2018-10-18T08:01:07.415Z,70.70
2018-10-18T08:03:35.942Z,70.70
2018-10-18T08:06:04.317Z,70.50
2018-10-18T08:08:32.738Z,70.60
2018-10-18T08:11:01.256Z,70.40
2018-10-18T08:13:29.608Z,70.10
2018-10-18T08:15:57.999Z,70.00
2018-10-18T08:18:26.522Z,69.70
2018-10-18T08:20:55.047Z,69.30
2018-10-18T08:23:23.386Z,68.90
2018-10-18T08:25:51.893Z,68.80
2018-10-18T08:28:20.386Z,68.80
2018-10-18T08:30:53.008Z,68.70
2018-10-18T08:33:22.445Z,68.10
2018-10-18T08:35:51.018Z,68.00
2018-10-18T08:38:20.862Z,67.90
2018-10-18T08:40:49.251Z,68.00
2018-10-18T08:43:17.939Z,68.00
2018-10-18T08:45:46.317Z,67.30
2018-10-18T08:48:14.820Z,67.30
2018-10-18T08:50:43.182Z,67.10
2018-10-18T08:53:11.546Z,66.80
2018-10-18T08:55:40.018Z,66.10
2018-10-18T08:58:08.454Z,65.20
2018-10-18T09:00:36.834Z,65.60
2018-10-18T09:03:05.523Z,65.00
2018-10-18T09:05:34.025Z,64.80
2018-10-18T09:08:02.394Z,64.60
2018-10-18T09:10:30.774Z,64.60
2018-10-18T09:12:59.163Z,64.30
2018-10-18T09:15:27.498Z,63.90
2018-10-18T09:17:55.894Z,63.60
2018-10-18T09:20:24.294Z,63.60
2018-10-18T09:22:52.699Z,63.60
2018-10-18T09:25:21.071Z,63.40
2018-10-18T09:27:49.482Z,63.20
2018-10-18T09:30:17.916Z,62.50
2018-10-18T09:32:46.254Z,62.30
2018-10-18T09:35:14.751Z,62.10
2018-10-18T09:37:43.144Z,61.70
2018-10-18T09:40:11.662Z,61.30
2018-10-18T09:42:40.411Z,60.70
2018-10-18T09:45:10.627Z,61.00
2018-10-18T09:47:39.014Z,61.00
2018-10-18T09:50:08.007Z,60.30
2018-10-18T09:52:36.554Z,59.90
2018-10-18T09:55:06.264Z,59.80
2018-10-18T09:57:34.660Z,59.60
2018-10-18T10:00:03.210Z,59.20
2018-10-18T10:02:37.246Z,59.30
2018-10-18T10:05:05.876Z,58.70
2018-10-18T10:07:34.285Z,58.50
2018-10-18T10:10:02.734Z,58.30
2018-10-18T10:12:31.235Z,58.30
2018-10-18T10:14:59.898Z,58.30
2018-10-18T10:17:28.258Z,58.10
2018-10-18T10:19:56.874Z,57.90
2018-10-18T10:22:25.279Z,57.40
2018-10-18T10:24:53.752Z,57.00
2018-10-18T10:27:22.200Z,56.80
2018-10-18T10:29:50.584Z,56.70
2018-10-18T10:32:19.249Z,56.50
2018-10-18T10:34:47.706Z,56.50
2018-10-18T10:37:16.202Z,56.00
2018-10-18T10:39:44.589Z,55.80
2018-10-18T10:42:13.123Z,55.50
2018-10-18T10:44:41.447Z,55.40
2018-10-18T10:47:09.851Z,55.40
2018-10-18T10:49:38.244Z,55.20
2018-10-18T10:52:06.819Z,55.50
2018-10-18T10:54:35.224Z,54.60
2018-10-18T10:57:03.714Z,54.20
2018-10-18T10:59:32.044Z,53.80
2018-10-18T11:02:00.577Z,53.20
2018-10-18T11:04:28.897Z,52.70
2018-10-18T11:06:57.324Z,52.50
2018-10-18T11:09:25.954Z,52.80
2018-10-18T11:11:54.333Z,52.20
2018-10-18T11:14:22.735Z,52.00
2018-10-18T11:16:51.168Z,51.80
2018-10-18T11:19:19.586Z,51.80
2018-10-18T11:21:48.063Z,51.50
2018-10-18T11:24:16.496Z,51.30
2018-10-18T11:26:44.951Z,51.00
2018-10-18T11:29:13.351Z,50.60
2018-10-18T11:31:41.776Z,50.40
2018-10-18T11:34:10.199Z,50.40
2018-10-18T11:36:38.666Z,50.20
2018-10-18T11:39:08.227Z,50.00
2018-10-18T11:41:36.741Z,49.60
2018-10-18T11:44:05.692Z,49.50
2018-10-18T11:46:34.229Z,49.10
2018-10-18T11:49:02.599Z,48.90
2018-10-18T11:51:31.000Z,48.70
2018-10-18T11:53:59.437Z,48.50
2018-10-18T11:56:27.864Z,48.50
2018-10-18T11:58:56.551Z,48.20
2018-10-18T12:01:25.365Z,48.00
2018-10-18T12:03:53.726Z,47.80
2018-10-18T12:06:22.178Z,47.70
2018-10-18T12:08:50.563Z,47.70
2018-10-18T12:11:18.946Z,47.50
2018-10-18T12:13:47.365Z,47.00
2018-10-18T12:16:15.767Z,47.10
2018-10-18T12:18:44.158Z,46.90
2018-10-18T12:21:12.565Z,46.80
2018-10-18T12:23:40.963Z,46.70
2018-10-18T12:26:09.604Z,46.50
2018-10-18T12:28:37.954Z,46.20
2018-10-18T12:31:06.385Z,46.20
2018-10-18T12:33:34.872Z,46.00
2018-10-18T12:36:03.376Z,45.90
2018-10-18T12:38:31.883Z,45.60
2018-10-18T12:41:00.493Z,45.50
2018-10-18T12:43:28.799Z,45.60
2018-10-18T12:45:57.385Z,45.40
2018-10-18T12:48:25.876Z,45.40
2018-10-18T12:50:54.244Z,45.30
2018-10-18T12:53:22.608Z,45.20
2018-10-18T12:55:50.996Z,45.00
2018-10-18T12:58:19.446Z,44.70
2018-10-18T13:00:47.835Z,44.40
2018-10-18T13:03:16.240Z,44.20
2018-10-18T13:05:44.650Z,44.20
2018-10-18T13:08:13.347Z,44.20
2018-10-18T13:10:41.638Z,44.30
2018-10-18T13:13:10.053Z,44.40
2018-10-18T13:15:38.464Z,44.30
2018-10-18T13:18:07.044Z,44.00
2018-10-18T13:20:35.374Z,43.70
2018-10-18T13:23:03.916Z,43.20
2018-10-18T13:25:32.426Z,43.20
2018-10-18T13:28:00.952Z,43.20
2018-10-18T13:30:29.390Z,43.50
2018-10-18T13:32:57.767Z,43.60
2018-10-18T13:35:26.189Z,43.60
2018-10-18T13:37:54.720Z,43.50
2018-10-18T13:40:23.174Z,43.20
2018-10-18T13:42:51.590Z,43.90
2018-10-18T13:45:20.161Z,43.20
2018-10-18T13:47:48.549Z,43.20
2018-10-18T13:50:17.085Z,43.40
2018-10-18T13:52:45.410Z,43.40
2018-10-18T13:55:13.994Z,43.50
2018-10-18T13:57:42.509Z,43.60
2018-10-18T14:00:19.543Z,43.80
2018-10-18T14:02:47.881Z,44.20
2018-10-18T14:05:16.522Z,44.60
2018-10-18T14:07:44.863Z,44.80
2018-10-18T14:10:13.410Z,45.00
2018-10-18T14:12:41.945Z,45.00
2018-10-18T14:15:10.413Z,45.60
2018-10-18T14:17:39.200Z,45.20
2018-10-18T14:20:07.891Z,45.50
2018-10-18T14:22:36.408Z,45.70
2018-10-18T14:25:04.819Z,46.00
2018-10-18T14:27:33.277Z,46.20
2018-10-18T14:30:01.703Z,46.40
2018-10-18T14:32:30.103Z,46.50
2018-10-18T14:34:58.522Z,46.20
2018-10-18T14:37:26.975Z,47.00
2018-10-18T14:39:55.343Z,47.20
2018-10-18T14:42:23.784Z,47.40
2018-10-18T14:44:52.708Z,47.60
2018-10-18T14:47:22.705Z,47.80
2018-10-18T14:49:51.309Z,48.00
2018-10-18T14:52:19.873Z,48.30
2018-10-18T14:54:48.273Z,48.50
2018-10-18T14:57:16.947Z,48.60
2018-10-18T14:59:45.423Z,48.80
2018-10-18T15:02:13.926Z,49.00
2018-10-18T15:04:42.504Z,49.20
2018-10-18T15:07:10.897Z,49.30
2018-10-18T15:09:39.327Z,49.50
2018-10-18T15:12:08.562Z,49.50
2018-10-18T15:14:37.216Z,49.60
2018-10-18T15:17:05.954Z,50.40
2018-10-18T15:19:34.463Z,49.80
2018-10-18T15:22:02.838Z,50.00
2018-10-18T15:24:31.359Z,50.20
2018-10-18T15:26:59.900Z,50.20
2018-10-18T15:29:28.270Z,50.30
2018-10-18T15:31:56.797Z,50.40
2018-10-18T15:34:25.197Z,50.50
2018-10-18T15:36:53.725Z,50.60
2018-10-18T15:39:22.344Z,50.60
2018-10-18T15:41:50.646Z,50.70
2018-10-18T15:44:19.205Z,50.80
2018-10-18T15:46:47.673Z,51.00
2018-10-18T15:49:16.067Z,51.20
2018-10-18T15:51:44.577Z,51.30
2018-10-18T15:54:13.153Z,51.50
2018-10-18T15:56:41.761Z,51.60
2018-10-18T15:59:10.133Z,51.90
2018-10-18T16:01:38.890Z,52.10
2018-10-18T16:04:07.552Z,56.00
2018-10-18T16:06:35.998Z,55.00
2018-10-18T16:09:07.204Z,54.80
2018-10-18T16:11:35.689Z,54.10
2018-10-18T16:14:04.722Z,54.50
2018-10-18T16:16:33.258Z,54.20
2018-10-18T16:19:01.681Z,53.60
2018-10-18T16:21:30.758Z,53.30
2018-10-18T16:23:59.405Z,53.50
2018-10-18T16:26:28.331Z,53.50
2018-10-18T16:28:56.839Z,52.90
2018-10-18T16:31:25.489Z,52.80
2018-10-18T16:33:54.019Z,53.10
2018-10-18T16:36:22.442Z,53.20
2018-10-18T16:38:51.027Z,52.90
2018-10-18T16:41:19.524Z,52.30
2018-10-18T16:43:47.863Z,52.20
2018-10-18T16:46:16.448Z,53.00
2018-10-18T16:48:44.889Z,52.60
2018-10-18T16:51:13.633Z,52.70
2018-10-18T16:53:42.136Z,53.10
2018-10-18T16:56:10.769Z,53.40
2018-10-18T16:58:39.263Z,53.60
2018-10-18T17:01:07.810Z,53.70
2018-10-18T17:03:36.196Z,54.00
2018-10-18T17:06:05.048Z,54.20
2018-10-18T17:08:33.375Z,54.30
2018-10-18T17:11:01.850Z,54.40
2018-10-18T17:13:30.333Z,54.70
2018-10-18T17:15:58.819Z,54.70
2018-10-18T17:18:27.367Z,54.80
2018-10-18T17:20:55.858Z,54.90
2018-10-18T17:23:24.373Z,55.10
2018-10-18T17:25:52.702Z,55.20
2018-10-18T17:28:21.198Z,55.40
2018-10-18T17:30:49.761Z,55.50
2018-10-18T17:33:18.258Z,55.50
2018-10-18T17:35:46.687Z,55.70
2018-10-18T17:38:15.319Z,55.70
2018-10-18T17:40:43.979Z,55.90
2018-10-18T17:43:12.408Z,56.00
2018-10-18T17:45:41.227Z,56.10
2018-10-18T17:48:09.778Z,56.50
2018-10-18T17:50:38.278Z,56.80
2018-10-18T17:53:06.982Z,56.70
2018-10-18T17:55:35.402Z,57.10
2018-10-18T17:58:03.923Z,57.40
2018-10-18T18:00:32.429Z,57.50
2018-10-18T18:03:01.166Z,57.70
2018-10-18T18:05:29.640Z,58.40
2018-10-18T18:07:58.239Z,57.90
2018-10-18T18:10:26.679Z,58.20
2018-10-18T18:12:55.121Z,58.20
2018-10-18T18:15:23.782Z,58.40
2018-10-18T18:17:52.273Z,58.60
2018-10-18T18:20:20.931Z,58.90
2018-10-18T18:22:49.452Z,59.00
2018-10-18T18:25:18.165Z,59.10
2018-10-18T18:27:47.044Z,59.20
2018-10-18T18:30:16.114Z,59.30
2018-10-18T18:32:44.610Z,59.50
2018-10-18T18:35:13.171Z,59.60
2018-10-18T18:37:41.759Z,59.60
2018-10-18T18:40:10.867Z,59.80
2018-10-18T18:42:40.239Z,60.60
2018-10-18T18:45:14.271Z,60.10
2018-10-18T18:47:43.074Z,60.20
2018-10-18T18:50:11.624Z,60.60
2018-10-18T18:52:40.331Z,60.60
2018-10-18T18:55:09.923Z,60.60
2018-10-18T18:57:38.774Z,61.60
2018-10-18T19:00:08.780Z,60.90
2018-10-18T19:02:37.443Z,61.10
2018-10-18T19:05:07.336Z,61.20
2018-10-18T19:07:35.797Z,61.20
2018-10-18T19:10:04.713Z,61.30
2018-10-18T19:12:33.170Z,61.40
2018-10-18T19:15:01.917Z,61.80
2018-10-18T19:17:30.367Z,61.80
2018-10-18T19:19:59.023Z,61.90
2018-10-18T19:22:27.552Z,61.90
2018-10-18T19:24:56.032Z,62.00
2018-10-18T19:27:25.491Z,62.00
2018-10-18T19:29:54.042Z,62.10
2018-10-18T19:32:22.526Z,62.20
2018-10-18T19:34:51.029Z,62.60
2018-10-18T19:37:19.696Z,62.70
2018-10-18T19:39:48.210Z,62.70
2018-10-18T19:42:17.019Z,62.80
2018-10-18T19:44:45.666Z,63.10
2018-10-18T19:47:14.090Z,62.90
2018-10-18T19:49:42.622Z,63.10
2018-10-18T19:52:11.368Z,63.00
2018-10-18T19:54:39.949Z,63.30
2018-10-18T19:57:08.435Z,63.60
2018-10-18T19:59:36.870Z,63.60
2018-10-18T20:02:06.035Z,63.70
2018-10-18T20:04:34.501Z,63.80
2018-10-18T20:07:03.145Z,63.90
2018-10-18T20:09:31.851Z,64.10
2018-10-18T20:12:00.475Z,64.20
2018-10-18T20:14:29.030Z,64.20
2018-10-18T20:16:57.480Z,64.00
2018-10-18T20:19:26.072Z,64.20
2018-10-18T20:21:54.798Z,64.30
2018-10-18T20:24:23.461Z,64.50
2018-10-18T20:26:52.269Z,64.40
2018-10-18T20:29:20.811Z,64.60
2018-10-18T20:31:50.137Z,64.70
2018-10-18T20:34:18.622Z,64.80
2018-10-18T20:36:47.132Z,64.70
2018-10-18T20:39:15.879Z,64.90
2018-10-18T20:41:44.391Z,64.90
2018-10-18T20:44:12.865Z,65.00
2018-10-18T20:46:41.436Z,65.30
2018-10-18T20:49:10.106Z,65.50
2018-10-18T20:51:38.590Z,65.60
2018-10-18T20:54:07.108Z,65.80
2018-10-18T20:56:35.528Z,65.60
2018-10-18T20:59:04.170Z,65.50
2018-10-18T21:01:39.521Z,65.70
2018-10-18T21:04:08.014Z,65.80
2018-10-18T21:06:36.626Z,66.30
2018-10-18T21:09:07.533Z,66.50
2018-10-18T21:11:36.059Z,66.50
2018-10-18T21:14:04.587Z,66.90
2018-10-18T21:16:33.168Z,67.30
2018-10-18T21:19:01.535Z,67.80
2018-10-18T21:21:30.067Z,68.10
2018-10-18T21:23:58.558Z,67.70
2018-10-18T21:26:27.011Z,67.90
2018-10-18T21:28:55.497Z,67.40
2018-10-18T21:31:24.023Z,67.90
2018-10-18T21:33:53.052Z,67.60
2018-10-18T21:36:21.523Z,68.40
2018-10-18T21:38:49.914Z,68.40
2018-10-18T21:41:18.304Z,68.50
2018-10-18T21:43:46.726Z,68.70
2018-10-18T21:46:15.392Z,68.60
2018-10-18T21:48:44.136Z,68.30
2018-10-18T21:51:12.633Z,67.90
2018-10-18T21:53:40.936Z,68.20
2018-10-18T21:56:09.486Z,68.20
2018-10-18T21:58:37.946Z,68.20
2018-10-18T22:01:06.451Z,68.30
2018-10-18T22:03:34.970Z,67.90
2018-10-18T22:06:03.506Z,67.80
2018-10-18T22:08:31.994Z,68.10
2018-10-18T22:11:00.508Z,68.00
2018-10-18T22:13:28.850Z,68.30
2018-10-18T22:15:57.246Z,68.80
2018-10-18T22:18:25.625Z,69.00
2018-10-18T22:20:54.070Z,68.90
2018-10-18T22:23:22.507Z,68.90
2018-10-18T22:25:51.185Z,68.90
2018-10-18T22:28:19.711Z,68.80
2018-10-18T22:30:48.136Z,68.70
2018-10-18T22:33:16.646Z,68.70
2018-10-18T22:35:45.046Z,68.80
2018-10-18T22:38:13.392Z,68.90
2018-10-18T22:40:41.822Z,68.90
2018-10-18T22:43:10.294Z,69.00
2018-10-18T22:45:38.735Z,70.70
2018-10-18T22:48:07.274Z,69.40
2018-10-18T22:50:35.769Z,69.00
2018-10-18T22:53:04.431Z,69.10
2018-10-18T22:55:32.774Z,69.20
2018-10-18T22:58:01.510Z,69.30
2018-10-18T23:00:29.920Z,69.40
2018-10-18T23:02:58.507Z,69.30
2018-10-18T23:05:26.869Z,69.60
2018-10-18T23:07:55.399Z,70.00
2018-10-18T23:10:23.750Z,69.50
2018-10-18T23:12:52.151Z,69.50
2018-10-18T23:15:20.548Z,70.00
2018-10-18T23:17:49.096Z,69.60
2018-10-18T23:20:17.434Z,69.80
2018-10-18T23:22:45.807Z,69.70
2018-10-18T23:25:14.225Z,70.20
2018-10-18T23:27:42.927Z,70.40
2018-10-18T23:30:11.451Z,70.70
2018-10-18T23:32:39.833Z,71.00
2018-10-18T23:35:08.353Z,71.10
2018-10-18T23:37:36.689Z,71.50
2018-10-18T23:40:05.675Z,70.60
2018-10-18T23:42:34.199Z,70.60
2018-10-18T23:45:02.664Z,71.20
2018-10-18T23:47:31.122Z,71.40
2018-10-18T23:49:59.579Z,71.10
2018-10-18T23:52:28.148Z,70.90
2018-10-18T23:54:56.702Z,71.10
2018-10-18T23:57:25.177Z,71.40
2018-10-18T23:59:53.683Z,70.70
